sensor_id;sensor_type;location;lat;lon;timestamp;pressure;altitude;pressure_sealevel;temperature;humidity
75513;BME280;64090;49.770;18.760;2023-09-19T00:00:05;97003.82;;;18.62;74.29
75513;BME280;64090;49.770;18.760;2023-09-19T00:03:51;96999.73;;;18.74;74.35
75513;BME280;64090;49.770;18.760;2023-09-19T00:08:28;96992.54;;;18.87;74.04
75513;BME280;64090;49.770;18.760;2023-09-19T00:11:57;96991.68;;;18.95;74.00
75513;BME280;64090;49.770;18.760;2023-09-19T00:15:42;96992.13;;;19.02;73.90
75513;BME280;64090;49.770;18.760;2023-09-19T00:19:15;96987.71;;;19.12;73.67
75513;BME280;64090;49.770;18.760;2023-09-19T00:23:15;96985.10;;;19.25;73.59
75513;BME280;64090;49.770;18.760;2023-09-19T00:26:45;96983.55;;;19.38;73.34
75513;BME280;64090;49.770;18.760;2023-09-19T00:30:16;96980.17;;;19.42;73.05
75513;BME280;64090;49.770;18.760;2023-09-19T00:34:03;96976.71;;;19.45;73.04
75513;BME280;64090;49.770;18.760;2023-09-19T00:37:20;96977.60;;;19.47;73.13
75513;BME280;64090;49.770;18.760;2023-09-19T00:41:00;96977.23;;;19.48;73.16
75513;BME280;64090;49.770;18.760;2023-09-19T00:45:05;96972.11;;;19.46;73.63
75513;BME280;64090;49.770;18.760;2023-09-19T00:48:58;96971.55;;;19.43;74.07
75513;BME280;64090;49.770;18.760;2023-09-19T00:52:34;96971.05;;;19.44;74.20
75513;BME280;64090;49.770;18.760;2023-09-19T00:56:42;96964.63;;;19.53;74.15
75513;BME280;64090;49.770;18.760;2023-09-19T01:00:13;96963.60;;;19.55;74.23
75513;BME280;64090;49.770;18.760;2023-09-19T01:03:53;96962.33;;;19.59;74.18
75513;BME280;64090;49.770;18.760;2023-09-19T01:07:14;96958.21;;;19.65;74.08
75513;BME280;64090;49.770;18.760;2023-09-19T01:10:36;96952.06;;;19.69;73.93
75513;BME280;64090;49.770;18.760;2023-09-19T01:17:55;96942.59;;;19.78;73.42
75513;BME280;64090;49.770;18.760;2023-09-19T01:21:38;96947.00;;;19.79;73.44
75513;BME280;64090;49.770;18.760;2023-09-19T01:30:14;96929.52;;;19.76;73.77
75513;BME280;64090;49.770;18.760;2023-09-19T01:33:53;96929.14;;;19.75;73.54
75513;BME280;64090;49.770;18.760;2023-09-19T01:37:24;96926.70;;;19.74;73.83
75513;BME280;64090;49.770;18.760;2023-09-19T01:41:11;96925.58;;;19.75;73.53
75513;BME280;64090;49.770;18.760;2023-09-19T01:48:41;96927.11;;;19.78;73.50
75513;BME280;64090;49.770;18.760;2023-09-19T01:52:19;96928.34;;;19.79;73.41
75513;BME280;64090;49.770;18.760;2023-09-19T01:56:05;96929.82;;;19.82;73.31
75513;BME280;64090;49.770;18.760;2023-09-19T01:59:13;96933.97;;;19.83;73.36
75513;BME280;64090;49.770;18.760;2023-09-19T02:02:28;96937.45;;;19.84;73.34
75513;BME280;64090;49.770;18.760;2023-09-19T02:06:13;96939.61;;;19.85;73.47
75513;BME280;64090;49.770;18.760;2023-09-19T02:09:33;96940.20;;;19.86;73.51
75513;BME280;64090;49.770;18.760;2023-09-19T02:12:58;96938.80;;;19.86;73.67
75513;BME280;64090;49.770;18.760;2023-09-19T02:16:27;96942.42;;;19.85;73.98
75513;BME280;64090;49.770;18.760;2023-09-19T02:19:30;96937.53;;;19.77;75.59
75513;BME280;64090;49.770;18.760;2023-09-19T02:23:23;96937.23;;;19.66;75.63
75513;BME280;64090;49.770;18.760;2023-09-19T02:26:56;96937.73;;;19.58;75.45
75513;BME280;64090;49.770;18.760;2023-09-19T02:30:21;96940.13;;;19.53;75.42
75513;BME280;64090;49.770;18.760;2023-09-19T02:33:53;96940.08;;;19.48;75.84
75513;BME280;64090;49.770;18.760;2023-09-19T02:37:00;96936.84;;;19.41;76.23
75513;BME280;64090;49.770;18.760;2023-09-19T02:40:42;96933.83;;;19.35;77.26
75513;BME280;64090;49.770;18.760;2023-09-19T02:44:23;96929.34;;;19.26;77.04
75513;BME280;64090;49.770;18.760;2023-09-19T02:47:54;96924.85;;;19.16;77.46
75513;BME280;64090;49.770;18.760;2023-09-19T02:51:26;96927.27;;;19.07;78.04
75513;BME280;64090;49.770;18.760;2023-09-19T02:55:29;96922.45;;;18.94;79.25
75513;BME280;64090;49.770;18.760;2023-09-19T02:58:51;96922.23;;;18.87;79.62
75513;BME280;64090;49.770;18.760;2023-09-19T03:02:19;96923.42;;;18.77;79.92
75513;BME280;64090;49.770;18.760;2023-09-19T03:06:07;96919.54;;;18.66;80.43
75513;BME280;64090;49.770;18.760;2023-09-19T03:09:34;96907.26;;;18.54;81.36
75513;BME280;64090;49.770;18.760;2023-09-19T03:13:09;96903.48;;;18.45;81.55
75513;BME280;64090;49.770;18.760;2023-09-19T03:16:55;96904.00;;;18.36;81.93
75513;BME280;64090;49.770;18.760;2023-09-19T03:20:20;96904.30;;;18.29;82.57
75513;BME280;64090;49.770;18.760;2023-09-19T03:24:03;96903.68;;;18.21;83.15
75513;BME280;64090;49.770;18.760;2023-09-19T03:28:05;96897.86;;;18.13;83.62
75513;BME280;64090;49.770;18.760;2023-09-19T03:31:27;96899.48;;;18.10;84.11
75513;BME280;64090;49.770;18.760;2023-09-19T03:34:51;96900.18;;;18.06;84.57
75513;BME280;64090;49.770;18.760;2023-09-19T03:38:02;96903.64;;;18.02;84.49
75513;BME280;64090;49.770;18.760;2023-09-19T03:41:38;96908.22;;;17.99;84.52
75513;BME280;64090;49.770;18.760;2023-09-19T03:44:45;96911.73;;;17.96;85.01
75513;BME280;64090;49.770;18.760;2023-09-19T03:47:59;96914.31;;;17.96;85.14
75513;BME280;64090;49.770;18.760;2023-09-19T03:51:33;96918.56;;;17.94;87.03
75513;BME280;64090;49.770;18.760;2023-09-19T03:54:36;96917.96;;;17.93;85.89
75513;BME280;64090;49.770;18.760;2023-09-19T03:58:15;96923.03;;;17.90;85.88
75513;BME280;64090;49.770;18.760;2023-09-19T04:01:42;96936.27;;;17.89;87.84
75513;BME280;64090;49.770;18.760;2023-09-19T04:05:13;96943.95;;;17.85;91.74
75513;BME280;64090;49.770;18.760;2023-09-19T04:08:36;96945.10;;;17.80;90.09
75513;BME280;64090;49.770;18.760;2023-09-19T04:12:00;96943.16;;;17.81;88.90
75513;BME280;64090;49.770;18.760;2023-09-19T04:15:40;96938.48;;;17.82;88.92
75513;BME280;64090;49.770;18.760;2023-09-19T04:19:06;96929.92;;;17.84;88.71
75513;BME280;64090;49.770;18.760;2023-09-19T04:22:29;96927.71;;;17.85;88.17
75513;BME280;64090;49.770;18.760;2023-09-19T04:25:52;96923.59;;;17.83;88.33
75513;BME280;64090;49.770;18.760;2023-09-19T04:28:57;96926.77;;;17.81;88.54
75513;BME280;64090;49.770;18.760;2023-09-19T04:32:23;96921.55;;;17.80;88.47
75513;BME280;64090;49.770;18.760;2023-09-19T04:35:49;96926.16;;;17.82;88.12
75513;BME280;64090;49.770;18.760;2023-09-19T04:39:51;96929.88;;;17.82;88.77
75513;BME280;64090;49.770;18.760;2023-09-19T04:43:34;96933.89;;;17.77;88.88
75513;BME280;64090;49.770;18.760;2023-09-19T04:46:59;96942.77;;;17.75;90.09
75513;BME280;64090;49.770;18.760;2023-09-19T04:50:22;96951.91;;;17.75;91.30
75513;BME280;64090;49.770;18.760;2023-09-19T04:53:45;96961.55;;;17.67;92.44
75513;BME280;64090;49.770;18.760;2023-09-19T04:57:13;96964.77;;;17.66;91.75
75513;BME280;64090;49.770;18.760;2023-09-19T05:00:31;96962.86;;;17.62;91.41
75513;BME280;64090;49.770;18.760;2023-09-19T05:04:03;96965.41;;;17.64;91.48
75513;BME280;64090;49.770;18.760;2023-09-19T05:07:40;96971.21;;;17.67;91.89
75513;BME280;64090;49.770;18.760;2023-09-19T05:11:10;96974.94;;;17.68;91.48
75513;BME280;64090;49.770;18.760;2023-09-19T05:14:33;96976.05;;;17.69;90.99
75513;BME280;64090;49.770;18.760;2023-09-19T05:17:58;96980.03;;;17.69;90.45
75513;BME280;64090;49.770;18.760;2023-09-19T05:21:10;96986.65;;;17.68;91.48
75513;BME280;64090;49.770;18.760;2023-09-19T05:24:44;96991.33;;;17.68;91.71
75513;BME280;64090;49.770;18.760;2023-09-19T05:28:10;96995.64;;;17.67;90.84
75513;BME280;64090;49.770;18.760;2023-09-19T05:31:36;97004.89;;;17.68;92.08
75513;BME280;64090;49.770;18.760;2023-09-19T05:35:02;97009.44;;;17.67;93.65
75513;BME280;64090;49.770;18.760;2023-09-19T05:38:27;97019.23;;;17.69;91.53
75513;BME280;64090;49.770;18.760;2023-09-19T05:41:29;97017.89;;;17.66;93.59
75513;BME280;64090;49.770;18.760;2023-09-19T05:45:29;97028.31;;;17.62;94.11
75513;BME280;64090;49.770;18.760;2023-09-19T05:49:01;97031.79;;;17.60;93.48
75513;BME280;64090;49.770;18.760;2023-09-19T05:52:42;97041.15;;;17.56;92.87
75513;BME280;64090;49.770;18.760;2023-09-19T05:56:06;97048.50;;;17.50;92.76
75513;BME280;64090;49.770;18.760;2023-09-19T05:59:28;97048.01;;;17.34;93.03
75513;BME280;64090;49.770;18.760;2023-09-19T06:02:57;97051.14;;;17.19;94.00
75513;BME280;64090;49.770;18.760;2023-09-19T06:06:21;97054.58;;;17.03;94.60
75513;BME280;64090;49.770;18.760;2023-09-19T06:09:46;97063.04;;;16.95;94.54
75513;BME280;64090;49.770;18.760;2023-09-19T06:13:10;97063.22;;;16.88;94.65
75513;BME280;64090;49.770;18.760;2023-09-19T06:16:46;97072.61;;;16.86;95.38
75513;BME280;64090;49.770;18.760;2023-09-19T06:20:09;97080.54;;;16.80;95.06
75513;BME280;64090;49.770;18.760;2023-09-19T06:23:29;97088.05;;;16.76;96.59
75513;BME280;64090;49.770;18.760;2023-09-19T06:26:51;97093.88;;;16.73;96.15
75513;BME280;64090;49.770;18.760;2023-09-19T06:30:14;97111.45;;;16.72;96.77
75513;BME280;64090;49.770;18.760;2023-09-19T06:33:36;97115.95;;;16.73;95.85
75513;BME280;64090;49.770;18.760;2023-09-19T06:37:02;97122.27;;;16.77;96.17
75513;BME280;64090;49.770;18.760;2023-09-19T06:40:34;97121.42;;;16.86;95.24
75513;BME280;64090;49.770;18.760;2023-09-19T06:44:01;97132.80;;;16.95;94.97
75513;BME280;64090;49.770;18.760;2023-09-19T06:47:29;97136.65;;;17.02;94.96
75513;BME280;64090;49.770;18.760;2023-09-19T06:50:58;97142.86;;;17.12;94.04
75513;BME280;64090;49.770;18.760;2023-09-19T06:54:30;97145.27;;;17.23;94.18
75513;BME280;64090;49.770;18.760;2023-09-19T06:57:54;97146.08;;;17.34;94.87
75513;BME280;64090;49.770;18.760;2023-09-19T07:01:17;97151.59;;;17.46;95.19
75513;BME280;64090;49.770;18.760;2023-09-19T07:04:27;97160.39;;;17.55;94.70
75513;BME280;64090;49.770;18.760;2023-09-19T07:07:57;97160.82;;;17.59;94.95
75513;BME280;64090;49.770;18.760;2023-09-19T07:11:22;97164.16;;;17.59;94.70
75513;BME280;64090;49.770;18.760;2023-09-19T07:14:33;97169.66;;;17.67;93.35
75513;BME280;64090;49.770;18.760;2023-09-19T07:17:58;97172.21;;;17.72;93.60
75513;BME280;64090;49.770;18.760;2023-09-19T07:21:20;97177.05;;;17.75;93.04
75513;BME280;64090;49.770;18.760;2023-09-19T07:24:27;97176.24;;;17.72;92.69
75513;BME280;64090;49.770;18.760;2023-09-19T07:27:55;97182.64;;;17.70;92.46
75513;BME280;64090;49.770;18.760;2023-09-19T07:31:01;97193.95;;;17.63;92.42
75513;BME280;64090;49.770;18.760;2023-09-19T07:34:35;97198.02;;;17.57;92.13
75513;BME280;64090;49.770;18.760;2023-09-19T07:37:59;97203.02;;;17.55;91.88
75513;BME280;64090;49.770;18.760;2023-09-19T07:41:23;97208.83;;;17.56;92.30
75513;BME280;64090;49.770;18.760;2023-09-19T07:44:35;97213.46;;;17.62;91.98
75513;BME280;64090;49.770;18.760;2023-09-19T07:48:28;97216.77;;;17.66;91.80
75513;BME280;64090;49.770;18.760;2023-09-19T07:52:10;97223.77;;;17.68;92.11
75513;BME280;64090;49.770;18.760;2023-09-19T07:55:39;97226.43;;;17.75;92.11
75513;BME280;64090;49.770;18.760;2023-09-19T07:59:21;97231.61;;;17.90;91.22
75513;BME280;64090;49.770;18.760;2023-09-19T08:03:04;97229.87;;;18.03;90.76
75513;BME280;64090;49.770;18.760;2023-09-19T08:06:22;97236.39;;;18.16;90.06
75513;BME280;64090;49.770;18.760;2023-09-19T08:09:55;97240.17;;;18.20;89.74
75513;BME280;64090;49.770;18.760;2023-09-19T08:13:25;97244.54;;;18.23;89.62
75513;BME280;64090;49.770;18.760;2023-09-19T08:16:52;97250.52;;;18.27;89.53
75513;BME280;64090;49.770;18.760;2023-09-19T08:20:19;97254.67;;;18.30;89.19
75513;BME280;64090;49.770;18.760;2023-09-19T08:24:04;97260.69;;;18.24;89.01
75513;BME280;64090;49.770;18.760;2023-09-19T08:27:33;97262.61;;;18.14;89.38
75513;BME280;64090;49.770;18.760;2023-09-19T08:31:06;97266.35;;;18.09;89.56
75513;BME280;64090;49.770;18.760;2023-09-19T08:34:30;97267.31;;;18.07;89.95
75513;BME280;64090;49.770;18.760;2023-09-19T08:37:42;97271.78;;;18.08;89.87
75513;BME280;64090;49.770;18.760;2023-09-19T08:41:07;97269.84;;;18.05;89.39
75513;BME280;64090;49.770;18.760;2023-09-19T08:44:36;97273.94;;;18.08;90.03
75513;BME280;64090;49.770;18.760;2023-09-19T08:48:20;97278.08;;;18.10;90.17
75513;BME280;64090;49.770;18.760;2023-09-19T08:52:10;97276.60;;;18.13;90.30
75513;BME280;64090;49.770;18.760;2023-09-19T08:55:38;97281.71;;;18.21;89.67
75513;BME280;64090;49.770;18.760;2023-09-19T08:59:08;97282.13;;;18.31;89.29
75513;BME280;64090;49.770;18.760;2023-09-19T09:02:56;97288.34;;;18.47;88.82
75513;BME280;64090;49.770;18.760;2023-09-19T09:06:30;97290.13;;;18.63;88.89
75513;BME280;64090;49.770;18.760;2023-09-19T09:09:56;97297.17;;;18.83;88.02
75513;BME280;64090;49.770;18.760;2023-09-19T09:13:31;97295.77;;;19.03;87.61
75513;BME280;64090;49.770;18.760;2023-09-19T09:17:03;97301.59;;;19.20;87.07
75513;BME280;64090;49.770;18.760;2023-09-19T09:20:28;97305.83;;;19.26;86.42
75513;BME280;64090;49.770;18.760;2023-09-19T09:24:28;97308.35;;;19.31;86.23
75513;BME280;64090;49.770;18.760;2023-09-19T09:28:00;97302.63;;;19.38;85.80
75513;BME280;64090;49.770;18.760;2023-09-19T09:31:22;97302.06;;;19.42;85.51
75513;BME280;64090;49.770;18.760;2023-09-19T09:34:37;97303.83;;;19.56;85.52
75513;BME280;64090;49.770;18.760;2023-09-19T09:37:58;97308.40;;;19.57;84.56
75513;BME280;64090;49.770;18.760;2023-09-19T09:41:27;97309.27;;;19.30;84.83
75513;BME280;64090;49.770;18.760;2023-09-19T09:45:07;97310.74;;;19.16;85.10
75513;BME280;64090;49.770;18.760;2023-09-19T09:48:45;97314.09;;;18.96;85.60
75513;BME280;64090;49.770;18.760;2023-09-19T09:52:21;97313.37;;;18.75;85.99
75513;BME280;64090;49.770;18.760;2023-09-19T09:56:04;97318.27;;;18.68;86.41
75513;BME280;64090;49.770;18.760;2023-09-19T10:00:06;97315.64;;;18.53;86.58
75513;BME280;64090;49.770;18.760;2023-09-19T10:03:39;97318.63;;;18.40;87.14
75513;BME280;64090;49.770;18.760;2023-09-19T10:07:08;97321.83;;;18.28;87.37
75513;BME280;64090;49.770;18.760;2023-09-19T10:10:36;97325.41;;;18.15;88.04
75513;BME280;64090;49.770;18.760;2023-09-19T10:14:21;97329.83;;;18.04;88.18
75513;BME280;64090;49.770;18.760;2023-09-19T10:18:10;97330.14;;;18.02;88.03
75513;BME280;64090;49.770;18.760;2023-09-19T10:21:39;97336.02;;;18.05;87.99
75513;BME280;64090;49.770;18.760;2023-09-19T10:25:08;97339.48;;;18.11;88.65
75513;BME280;64090;49.770;18.760;2023-09-19T10:28:54;97339.68;;;18.23;88.12
75513;BME280;64090;49.770;18.760;2023-09-19T10:32:14;97342.83;;;18.28;88.35
75513;BME280;64090;49.770;18.760;2023-09-19T10:35:46;97348.23;;;18.38;87.75
75513;BME280;64090;49.770;18.760;2023-09-19T10:39:20;97356.13;;;18.49;87.82
75513;BME280;64090;49.770;18.760;2023-09-19T10:42:53;97355.92;;;18.56;87.88
75513;BME280;64090;49.770;18.760;2023-09-19T10:50:05;97362.20;;;18.79;86.90
75513;BME280;64090;49.770;18.760;2023-09-19T10:53:51;97361.55;;;18.90;87.17
75513;BME280;64090;49.770;18.760;2023-09-19T10:57:40;97362.27;;;19.09;86.55
75513;BME280;64090;49.770;18.760;2023-09-19T11:01:13;97369.38;;;19.28;86.38
75513;BME280;64090;49.770;18.760;2023-09-19T11:04:48;97372.81;;;19.51;85.73
75513;BME280;64090;49.770;18.760;2023-09-19T11:08:08;97372.21;;;19.68;84.85
75513;BME280;64090;49.770;18.760;2023-09-19T11:11:51;97370.89;;;19.84;84.48
75513;BME280;64090;49.770;18.760;2023-09-19T11:16:17;97377.77;;;19.92;82.74
75513;BME280;64090;49.770;18.760;2023-09-19T11:20:14;97385.02;;;20.04;82.63
75513;BME280;64090;49.770;18.760;2023-09-19T11:26:40;97391.23;;;20.30;82.06
75513;BME280;64090;49.770;18.760;2023-09-19T11:30:26;97391.69;;;20.66;81.72
75513;BME280;64090;49.770;18.760;2023-09-19T11:33:37;97390.40;;;21.08;79.56
75513;BME280;64090;49.770;18.760;2023-09-19T11:36:49;97393.44;;;21.33;78.63
75513;BME280;64090;49.770;18.760;2023-09-19T11:40:07;97390.66;;;21.63;78.62
75513;BME280;64090;49.770;18.760;2023-09-19T11:43:32;97393.20;;;21.52;76.93
75513;BME280;64090;49.770;18.760;2023-09-19T11:47:00;97394.39;;;21.53;77.12
75513;BME280;64090;49.770;18.760;2023-09-19T11:50:17;97394.41;;;21.62;75.62
75513;BME280;64090;49.770;18.760;2023-09-19T11:53:35;97396.59;;;21.82;75.83
75513;BME280;64090;49.770;18.760;2023-09-19T11:56:49;97395.68;;;22.12;75.66
75513;BME280;64090;49.770;18.760;2023-09-19T12:00:16;97396.87;;;22.37;74.36
75513;BME280;64090;49.770;18.760;2023-09-19T12:03:31;97393.02;;;22.74;73.40
75513;BME280;64090;49.770;18.760;2023-09-19T12:06:40;97392.39;;;23.03;73.41
75513;BME280;64090;49.770;18.760;2023-09-19T12:10:03;97388.23;;;23.16;70.32
75513;BME280;64090;49.770;18.760;2023-09-19T12:13:10;97389.95;;;23.48;71.68
75513;BME280;64090;49.770;18.760;2023-09-19T12:16:22;97394.84;;;24.01;71.39
75513;BME280;64090;49.770;18.760;2023-09-19T12:19:28;97397.15;;;24.27;67.42
75513;BME280;64090;49.770;18.760;2023-09-19T12:22:42;97393.20;;;24.45;67.11
75513;BME280;64090;49.770;18.760;2023-09-19T12:25:49;97391.29;;;24.57;66.24
75513;BME280;64090;49.770;18.760;2023-09-19T12:29:03;97393.77;;;24.63;67.66
75513;BME280;64090;49.770;18.760;2023-09-19T12:32:33;97390.23;;;24.55;66.34
75513;BME280;64090;49.770;18.760;2023-09-19T12:35:55;97390.88;;;24.39;65.76
75513;BME280;64090;49.770;18.760;2023-09-19T12:39:02;97391.90;;;24.48;66.94
75513;BME280;64090;49.770;18.760;2023-09-19T12:42:31;97393.58;;;24.52;66.66
75513;BME280;64090;49.770;18.760;2023-09-19T12:45:42;97392.15;;;24.57;64.67
75513;BME280;64090;49.770;18.760;2023-09-19T12:49:18;97395.23;;;24.42;64.86
75513;BME280;64090;49.770;18.760;2023-09-19T12:52:31;97391.11;;;24.22;64.78
75513;BME280;64090;49.770;18.760;2023-09-19T12:55:40;97384.45;;;23.88;64.55
75513;BME280;64090;49.770;18.760;2023-09-19T12:58:56;97377.54;;;23.75;65.92
75513;BME280;64090;49.770;18.760;2023-09-19T13:02:11;97380.20;;;23.72;66.25
75513;BME280;64090;49.770;18.760;2023-09-19T13:05:46;97384.55;;;23.78;66.01
75513;BME280;64090;49.770;18.760;2023-09-19T13:09:08;97388.96;;;23.71;63.29
75513;BME280;64090;49.770;18.760;2023-09-19T13:12:49;97384.95;;;23.61;65.39
75513;BME280;64090;49.770;18.760;2023-09-19T13:19:46;97381.80;;;23.09;66.42
75513;BME280;64090;49.770;18.760;2023-09-19T13:23:28;97383.33;;;23.01;66.92
75513;BME280;64090;49.770;18.760;2023-09-19T13:26:55;97386.44;;;22.71;66.08
75513;BME280;64090;49.770;18.760;2023-09-19T13:30:02;97378.11;;;22.46;66.80
75513;BME280;64090;49.770;18.760;2023-09-19T13:33:12;97379.27;;;22.35;67.13
75513;BME280;64090;49.770;18.760;2023-09-19T13:37:06;97381.96;;;22.28;68.19
75513;BME280;64090;49.770;18.760;2023-09-19T13:40:17;97377.95;;;22.18;68.84
75513;BME280;64090;49.770;18.760;2023-09-19T13:43:29;97377.67;;;22.04;69.06
75513;BME280;64090;49.770;18.760;2023-09-19T13:46:45;97376.90;;;21.86;69.30
75513;BME280;64090;49.770;18.760;2023-09-19T13:50:09;97377.66;;;21.64;70.38
75513;BME280;64090;49.770;18.760;2023-09-19T13:53:19;97377.31;;;21.49;71.20
75513;BME280;64090;49.770;18.760;2023-09-19T13:56:35;97380.30;;;21.41;71.40
75513;BME280;64090;49.770;18.760;2023-09-19T14:00:20;97388.77;;;21.21;72.34
75513;BME280;64090;49.770;18.760;2023-09-19T14:03:42;97394.25;;;21.03;72.11
75513;BME280;64090;49.770;18.760;2023-09-19T14:07:07;97402.27;;;20.86;73.21
75513;BME280;64090;49.770;18.760;2023-09-19T14:10:36;97402.09;;;20.59;74.46
75513;BME280;64090;49.770;18.760;2023-09-19T14:14:08;97390.98;;;20.30;75.26
75513;BME280;64090;49.770;18.760;2023-09-19T14:17:48;97383.45;;;20.09;76.00
75513;BME280;64090;49.770;18.760;2023-09-19T14:20:57;97382.94;;;19.98;75.93
75513;BME280;64090;49.770;18.760;2023-09-19T14:24:24;97385.55;;;20.08;76.45
75513;BME280;64090;49.770;18.760;2023-09-19T14:27:41;97385.95;;;20.30;77.37
75513;BME280;64090;49.770;18.760;2023-09-19T14:31:09;97378.81;;;20.56;77.00
75513;BME280;64090;49.770;18.760;2023-09-19T14:34:29;97378.98;;;20.76;76.24
75513;BME280;64090;49.770;18.760;2023-09-19T14:37:35;97376.80;;;20.97;75.94
75513;BME280;64090;49.770;18.760;2023-09-19T14:40:44;97375.16;;;21.14;75.99
75513;BME280;64090;49.770;18.760;2023-09-19T14:43:58;97378.46;;;21.27;76.00
75513;BME280;64090;49.770;18.760;2023-09-19T14:47:11;97376.27;;;21.46;75.89
75513;BME280;64090;49.770;18.760;2023-09-19T14:50:21;97370.16;;;21.67;75.95
75513;BME280;64090;49.770;18.760;2023-09-19T14:53:32;97370.13;;;21.86;75.56
75513;BME280;64090;49.770;18.760;2023-09-19T14:56:42;97367.85;;;22.11;75.23
75513;BME280;64090;49.770;18.760;2023-09-19T14:59:51;97368.84;;;22.25;74.95
75513;BME280;64090;49.770;18.760;2023-09-19T15:02:57;97371.27;;;22.25;74.67
75513;BME280;64090;49.770;18.760;2023-09-19T15:06:12;97375.23;;;22.22;74.55
75513;BME280;64090;49.770;18.760;2023-09-19T15:09:27;97378.40;;;22.26;74.76
75513;BME280;64090;49.770;18.760;2023-09-19T15:12:45;97380.41;;;22.35;74.44
75513;BME280;64090;49.770;18.760;2023-09-19T15:16:10;97382.20;;;22.39;74.02
75513;BME280;64090;49.770;18.760;2023-09-19T15:19:23;97381.13;;;22.44;73.80
75513;BME280;64090;49.770;18.760;2023-09-19T15:22:37;97383.78;;;22.43;72.54
75513;BME280;64090;49.770;18.760;2023-09-19T15:25:50;97386.01;;;22.43;71.79
75513;BME280;64090;49.770;18.760;2023-09-19T15:29:10;97384.89;;;22.29;69.99
75513;BME280;64090;49.770;18.760;2023-09-19T15:32:22;97383.98;;;22.28;70.97
75513;BME280;64090;49.770;18.760;2023-09-19T15:35:33;97384.85;;;22.11;70.43
75513;BME280;64090;49.770;18.760;2023-09-19T15:39:03;97387.60;;;22.07;71.04
75513;BME280;64090;49.770;18.760;2023-09-19T15:42:32;97382.11;;;22.09;70.65
75513;BME280;64090;49.770;18.760;2023-09-19T15:45:42;97376.69;;;22.05;71.13
75513;BME280;64090;49.770;18.760;2023-09-19T15:48:46;97370.46;;;22.04;71.46
75513;BME280;64090;49.770;18.760;2023-09-19T15:51:56;97371.14;;;22.03;71.50
75513;BME280;64090;49.770;18.760;2023-09-19T15:55:06;97371.74;;;22.02;71.38
75513;BME280;64090;49.770;18.760;2023-09-19T15:58:12;97367.59;;;22.01;71.08
75513;BME280;64090;49.770;18.760;2023-09-19T16:01:23;97376.58;;;21.95;71.12
75513;BME280;64090;49.770;18.760;2023-09-19T16:04:42;97376.90;;;21.91;70.73
75513;BME280;64090;49.770;18.760;2023-09-19T16:07:56;97379.76;;;21.81;70.22
75513;BME280;64090;49.770;18.760;2023-09-19T16:11:21;97388.92;;;21.69;70.93
75513;BME280;64090;49.770;18.760;2023-09-19T16:14:33;97391.04;;;21.58;71.08
75513;BME280;64090;49.770;18.760;2023-09-19T16:18:05;97394.31;;;21.40;71.37
75513;BME280;64090;49.770;18.760;2023-09-19T16:21:37;97394.80;;;21.26;71.74
75513;BME280;64090;49.770;18.760;2023-09-19T16:24:58;97396.80;;;21.05;72.05
75513;BME280;64090;49.770;18.760;2023-09-19T16:28:06;97395.06;;;20.88;72.36
75513;BME280;64090;49.770;18.760;2023-09-19T16:32:00;97393.40;;;20.57;72.84
75513;BME280;64090;49.770;18.760;2023-09-19T16:35:36;97391.82;;;20.31;73.17
75513;BME280;64090;49.770;18.760;2023-09-19T16:39:01;97400.73;;;20.05;73.28
75513;BME280;64090;49.770;18.760;2023-09-19T16:42:26;97401.91;;;19.82;73.89
75513;BME280;64090;49.770;18.760;2023-09-19T16:45:55;97402.52;;;19.62;74.06
75513;BME280;64090;49.770;18.760;2023-09-19T16:52:30;97412.14;;;19.21;74.55
75513;BME280;64090;49.770;18.760;2023-09-19T16:56:01;97412.31;;;18.92;75.23
75513;BME280;64090;49.770;18.760;2023-09-19T16:59:50;97420.21;;;18.68;75.50
75513;BME280;64090;49.770;18.760;2023-09-19T17:03:16;97420.58;;;18.48;75.55
75513;BME280;64090;49.770;18.760;2023-09-19T17:07:00;97421.51;;;18.24;76.07
75513;BME280;64090;49.770;18.760;2023-09-19T17:10:25;97422.73;;;18.02;76.36
75513;BME280;64090;49.770;18.760;2023-09-19T17:14:08;97430.27;;;17.79;76.70
75513;BME280;64090;49.770;18.760;2023-09-19T17:18:05;97437.04;;;17.56;77.24
75513;BME280;64090;49.770;18.760;2023-09-19T17:21:29;97441.94;;;17.36;77.52
75513;BME280;64090;49.770;18.760;2023-09-19T17:24:55;97447.95;;;17.18;77.98
75513;BME280;64090;49.770;18.760;2023-09-19T17:28:20;97446.27;;;17.01;77.99
75513;BME280;64090;49.770;18.760;2023-09-19T17:31:42;97450.19;;;16.83;78.34
75513;BME280;64090;49.770;18.760;2023-09-19T17:35:26;97454.02;;;16.67;78.67
75513;BME280;64090;49.770;18.760;2023-09-19T17:38:54;97465.24;;;16.53;78.98
75513;BME280;64090;49.770;18.760;2023-09-19T17:42:41;97466.29;;;16.38;79.35
75513;BME280;64090;49.770;18.760;2023-09-19T17:46:09;97472.77;;;16.26;79.76
75513;BME280;64090;49.770;18.760;2023-09-19T17:50:22;97475.90;;;16.11;80.15
75513;BME280;64090;49.770;18.760;2023-09-19T17:54:07;97485.59;;;15.97;80.55
75513;BME280;64090;49.770;18.760;2023-09-19T17:57:33;97489.17;;;15.86;80.52
75513;BME280;64090;49.770;18.760;2023-09-19T18:00:45;97488.73;;;15.74;80.99
75513;BME280;64090;49.770;18.760;2023-09-19T18:04:11;97492.51;;;15.65;81.30
75513;BME280;64090;49.770;18.760;2023-09-19T18:08:17;97493.87;;;15.53;82.35
75513;BME280;64090;49.770;18.760;2023-09-19T18:12:06;97499.77;;;15.44;82.40
75513;BME280;64090;49.770;18.760;2023-09-19T18:15:56;97502.67;;;15.34;82.73
75513;BME280;64090;49.770;18.760;2023-09-19T18:19:33;97505.56;;;15.25;82.64
75513;BME280;64090;49.770;18.760;2023-09-19T18:23:14;97507.94;;;15.17;82.91
75513;BME280;64090;49.770;18.760;2023-09-19T18:27:09;97510.75;;;15.12;83.02
75513;BME280;64090;49.770;18.760;2023-09-19T18:31:02;97510.73;;;15.04;83.60
75513;BME280;64090;49.770;18.760;2023-09-19T18:34:50;97520.56;;;14.97;83.42